Time;durP1;ratioP1;P1;durP2;ratioP2;P2;SDS_P1;SDS_P2;PMS_P1;PMS_P2;Temp;Humidity;BMP_temperature;BMP_pressure;BME280_temperature;BME280_humidity;BME280_pressure;Samples;Min_cycle;Max_cycle;Signal;HPM_P1;HPM_P2
2022/04/11 00:00:25;;;;;;;12.03;8.80;;;1.70;99.90;;;;;;5076925;28;20202;-62
2022/04/11 00:02:51;;;;;;;11.77;9.10;;;1.60;99.90;;;;;;5075353;28;20579;-62
2022/04/11 00:05:17;;;;;;;12.23;9.33;;;1.50;99.90;;;;;;5076535;28;20181;-62
2022/04/11 00:07:42;;;;;;;10.10;8.73;;;1.50;99.90;;;;;;5077193;28;20178;-62
2022/04/11 00:10:08;;;;;;;12.80;9.60;;;1.30;99.90;;;;;;5076644;28;20217;-63
2022/04/11 00:12:36;;;;;;;10.90;9.43;;;1.40;99.90;;;;;;5077335;28;20195;-62
2022/04/11 00:15:06;;;;;;;10.77;9.13;;;1.30;99.90;;;;;;5076206;28;20194;-61
2022/04/11 00:17:32;;;;;;;9.67;8.73;;;1.20;99.90;;;;;;5076337;28;20176;-62
2022/04/11 00:19:58;;;;;;;10.80;9.23;;;1.20;99.90;;;;;;5076233;28;20276;-61
2022/04/11 00:22:23;;;;;;;12.40;8.87;;;1.10;99.90;;;;;;5075127;28;20197;-61
2022/04/11 00:24:50;;;;;;;9.83;8.80;;;1.10;99.90;;;;;;5057849;28;20536;-61
2022/04/11 00:27:15;;;;;;;10.73;9.50;;;1.10;99.90;;;;;;5074169;28;20189;-61
2022/04/11 00:29:41;;;;;;;13.80;9.20;;;1.10;99.90;;;;;;5076069;28;20197;-62
2022/04/11 00:32:07;;;;;;;10.07;9.17;;;1.10;99.90;;;;;;5074916;28;20182;-62
2022/04/11 00:34:33;;;;;;;9.73;8.80;;;1.10;99.90;;;;;;5075797;28;20181;-62
2022/04/11 00:36:59;;;;;;;9.80;8.80;;;1.20;99.90;;;;;;5075953;28;20547;-62
2022/04/11 00:39:24;;;;;;;10.17;8.83;;;1.20;99.90;;;;;;5076293;28;20282;-62
2022/04/11 00:41:50;;;;;;;9.83;8.67;;;1.20;99.90;;;;;;5075732;28;20265;-63
2022/04/11 00:44:16;;;;;;;11.53;8.90;;;1.20;99.90;;;;;;5075589;28;20174;-62
2022/04/11 00:46:41;;;;;;;10.47;9.37;;;1.20;99.90;;;;;;5075690;28;20236;-61
2022/04/11 00:49:08;;;;;;;10.13;9.13;;;1.20;99.90;;;;;;5075831;28;20194;-61
2022/04/11 00:51:34;;;;;;;14.80;9.47;;;1.30;99.90;;;;;;5075887;28;20178;-61
2022/04/11 00:54:01;;;;;;;10.27;9.27;;;1.30;99.90;;;;;;5064131;28;20182;-62
2022/04/11 00:56:29;;;;;;;10.17;9.00;;;1.10;99.90;;;;;;5066811;28;20326;-62
2022/04/11 00:58:55;;;;;;;11.63;9.10;;;1.10;99.90;;;;;;5075346;28;20190;-62
2022/04/11 01:01:21;;;;;;;9.80;8.90;;;1.10;99.90;;;;;;5075722;28;20233;-62
2022/04/11 01:03:47;;;;;;;10.43;9.30;;;1.10;99.90;;;;;;5074462;28;20196;-62
2022/04/11 01:06:13;;;;;;;14.10;10.27;;;1.20;99.90;;;;;;5075452;28;20587;-62
2022/04/11 01:08:39;;;;;;;12.07;10.03;;;1.20;99.90;;;;;;5075373;28;20198;-62
2022/04/11 01:11:05;;;;;;;12.97;9.90;;;1.30;99.90;;;;;;5075128;28;20197;-62
2022/04/11 01:13:31;;;;;;;11.00;9.87;;;1.30;99.90;;;;;;5074988;28;20182;-62
2022/04/11 01:16:01;;;;;;;14.70;10.27;;;1.30;99.90;;;;;;5075329;28;20267;-61
2022/04/11 01:18:27;;;;;;;12.63;10.33;;;1.20;99.90;;;;;;5075284;28;20249;-61
2022/04/11 01:20:54;;;;;;;17.47;10.03;;;1.30;99.90;;;;;;5075134;28;20197;-61
2022/04/11 01:23:19;;;;;;;15.60;11.07;;;1.30;99.90;;;;;;5069356;28;20237;-64
2022/04/11 01:25:53;;;;;;;11.67;10.13;;;1.30;99.90;;;;;;5060957;28;20651;-63
2022/04/11 01:28:20;;;;;;;12.33;10.33;;;1.20;99.90;;;;;;5074923;28;20181;-65
2022/04/11 01:30:50;;;;;;;14.40;11.37;;;1.20;99.90;;;;;;5074885;28;20643;-63
2022/04/11 01:33:17;;;;;;;11.83;10.60;;;1.10;99.90;;;;;;5074826;28;20162;-62
2022/04/11 01:35:43;;;;;;;15.37;10.33;;;1.10;99.90;;;;;;5074527;28;20255;-62
2022/04/11 01:38:08;;;;;;;16.67;10.60;;;1.10;99.90;;;;;;5074773;28;20174;-62
2022/04/11 01:40:34;;;;;;;13.73;10.73;;;1.20;99.90;;;;;;5074559;28;20174;-61
2022/04/11 01:43:00;;;;;;;13.90;11.33;;;1.10;99.90;;;;;;5074447;28;20279;-61
2022/04/11 01:45:26;;;;;;;15.73;10.93;;;1.10;99.90;;;;;;5074293;28;20216;-63
2022/04/11 01:47:51;;;;;;;13.23;11.07;;;1.10;99.90;;;;;;5074465;28;20252;-64
2022/04/11 01:50:17;;;;;;;12.83;11.30;;;1.10;99.90;;;;;;5074381;28;20277;-62
2022/04/11 01:52:43;;;;;;;14.37;11.27;;;1.10;99.90;;;;;;5073494;28;20698;-62
2022/04/11 01:55:09;;;;;;;14.40;10.87;;;1.10;99.90;;;;;;5055030;28;20612;-62
2022/04/11 01:57:34;;;;;;;12.97;10.50;;;1.00;99.90;;;;;;5074223;28;20180;-62
2022/04/11 02:00:00;;;;;;;13.77;11.20;;;0.90;99.90;;;;;;5073892;28;20190;-61
2022/04/11 02:02:26;;;;;;;16.20;11.70;;;1.00;99.90;;;;;;5074136;28;20182;-62
2022/04/11 02:04:52;;;;;;;17.73;10.90;;;1.00;99.90;;;;;;5072826;28;20212;-62
2022/04/11 02:07:18;;;;;;;15.63;11.17;;;1.10;99.90;;;;;;5074099;28;20178;-61
2022/04/11 02:09:43;;;;;;;13.03;11.13;;;1.00;99.90;;;;;;5073912;28;20200;-62
2022/04/11 02:12:09;;;;;;;13.43;10.63;;;0.90;99.90;;;;;;5074526;28;20287;-61
2022/04/11 02:14:35;;;;;;;12.67;10.93;;;0.90;99.90;;;;;;5073286;28;20181;-62
2022/04/11 02:17:00;;;;;;;11.50;10.37;;;0.80;99.90;;;;;;5074387;28;20170;-62
2022/04/11 02:19:26;;;;;;;12.67;10.33;;;0.80;99.90;;;;;;5073771;28;20700;-61
2022/04/11 02:21:52;;;;;;;11.97;10.77;;;0.80;99.90;;;;;;5073859;28;20182;-62
2022/04/11 02:24:17;;;;;;;15.17;10.77;;;0.80;99.90;;;;;;5060035;28;20190;-62
2022/04/11 02:26:43;;;;;;;14.30;11.30;;;0.80;99.90;;;;;;5067358;28;20182;-61
2022/04/11 02:29:08;;;;;;;13.63;11.50;;;0.80;99.90;;;;;;5072138;28;20205;-62
2022/04/11 02:31:34;;;;;;;13.10;11.60;;;0.70;99.90;;;;;;5073740;28;20217;-62
2022/04/11 02:34:00;;;;;;;14.47;11.70;;;0.70;99.90;;;;;;5073732;28;20177;-61
2022/04/11 02:36:25;;;;;;;15.97;10.97;;;0.70;99.90;;;;;;5073894;28;20197;-62
2022/04/11 02:38:51;;;;;;;14.33;11.03;;;0.70;99.90;;;;;;5073834;28;20662;-61
2022/04/11 02:41:18;;;;;;;22.03;11.93;;;0.70;99.90;;;;;;5072582;28;20202;-62
2022/04/11 02:43:44;;;;;;;16.13;11.43;;;0.80;99.90;;;;;;5073469;28;20577;-61
2022/04/11 02:46:10;;;;;;;14.70;11.90;;;0.70;99.90;;;;;;5073502;28;20287;-61
2022/04/11 02:48:37;;;;;;;13.10;11.40;;;0.80;99.90;;;;;;5072147;28;20213;-62
2022/04/11 02:51:03;;;;;;;13.93;11.73;;;0.80;99.90;;;;;;5073451;28;20188;-62
2022/04/11 02:53:28;;;;;;;15.60;13.20;;;0.80;99.90;;;;;;5065034;28;20212;-62
2022/04/11 02:55:54;;;;;;;16.83;12.27;;;0.80;99.90;;;;;;5060264;28;20292;-62
2022/04/11 02:58:19;;;;;;;15.67;12.43;;;0.80;99.90;;;;;;5073582;28;20185;-62
2022/04/11 03:00:45;;;;;;;13.43;11.83;;;0.80;99.90;;;;;;5073071;28;20649;-62
2022/04/11 03:03:11;;;;;;;14.67;12.50;;;0.80;99.90;;;;;;5073256;28;20180;-61
2022/04/11 03:05:37;;;;;;;13.53;11.67;;;0.80;99.90;;;;;;5073502;28;20265;-62
2022/04/11 03:08:03;;;;;;;13.80;11.87;;;0.70;99.90;;;;;;5073623;28;20181;-62
2022/04/11 03:10:29;;;;;;;16.40;12.17;;;0.70;99.90;;;;;;5073203;28;20216;-62
2022/04/11 03:12:55;;;;;;;13.77;12.30;;;0.70;99.90;;;;;;5073840;28;20568;-62
2022/04/11 03:15:20;;;;;;;13.03;11.23;;;0.60;99.90;;;;;;5071585;28;20212;-63
2022/04/11 03:17:46;;;;;;;12.63;11.40;;;0.50;99.90;;;;;;5073475;28;20201;-62
2022/04/11 03:20:12;;;;;;;14.93;11.37;;;0.50;99.90;;;;;;5073102;28;20272;-62
2022/04/11 03:22:38;;;;;;;15.20;11.53;;;0.50;99.90;;;;;;5073148;28;20198;-63
2022/04/11 03:25:04;;;;;;;14.43;12.23;;;0.50;99.90;;;;;;5053058;28;20677;-62
2022/04/11 03:27:30;;;;;;;12.27;11.07;;;0.40;99.90;;;;;;5054735;28;20182;-62
2022/04/11 03:29:56;;;;;;;13.83;12.00;;;0.30;99.90;;;;;;5056881;28;20633;-62
2022/04/11 03:32:21;;;;;;;14.40;11.63;;;0.30;99.90;;;;;;5057066;28;20742;-62
2022/04/11 03:34:49;;;;;;;13.07;11.67;;;0.30;99.90;;;;;;5056955;28;20198;-61
2022/04/11 03:37:14;;;;;;;15.37;12.20;;;0.30;99.90;;;;;;5056975;28;20220;-62
2022/04/11 03:39:40;;;;;;;15.53;12.43;;;0.20;99.90;;;;;;5056831;28;20651;-62
2022/04/11 03:42:06;;;;;;;12.33;11.03;;;0.20;99.90;;;;;;5055488;28;20183;-61
2022/04/11 03:44:32;;;;;;;14.63;12.37;;;0.20;99.90;;;;;;5056559;28;20175;-62
2022/04/11 03:46:57;;;;;;;12.57;11.30;;;0.20;99.90;;;;;;5057037;28;20186;-62
2022/04/11 03:49:23;;;;;;;14.23;11.50;;;0.20;99.90;;;;;;5056945;28;20187;-64
2022/04/11 03:51:51;;;;;;;13.03;11.43;;;0.30;99.90;;;;;;5056782;28;20170;-64
2022/04/11 03:54:16;;;;;;;12.13;10.90;;;0.30;99.90;;;;;;5069048;28;20190;-64
2022/04/11 03:56:42;;;;;;;13.13;10.27;;;0.40;99.90;;;;;;5061884;28;20260;-64
2022/04/11 03:59:08;;;;;;;13.33;11.27;;;0.50;99.90;;;;;;5056331;28;20191;-64
2022/04/11 04:01:33;;;;;;;12.70;11.43;;;0.40;99.90;;;;;;5055283;28;20183;-63
2022/04/11 04:03:59;;;;;;;11.80;10.37;;;0.50;99.90;;;;;;5055272;28;20189;-64
2022/04/11 04:06:25;;;;;;;12.97;11.47;;;0.50;99.90;;;;;;5056585;28;20182;-64
2022/04/11 04:08:51;;;;;;;14.00;11.27;;;0.50;99.90;;;;;;5056722;28;20198;-65
2022/04/11 04:11:16;;;;;;;13.60;10.67;;;0.50;99.90;;;;;;5054955;28;20256;-64
2022/04/11 04:13:43;;;;;;;14.43;10.20;;;0.40;99.90;;;;;;5054939;28;20190;-62
2022/04/11 04:16:08;;;;;;;13.17;10.30;;;0.50;99.90;;;;;;5056590;28;20289;-63
2022/04/11 04:18:34;;;;;;;15.40;11.10;;;0.40;99.90;;;;;;5056199;28;20685;-64
2022/04/11 04:21:00;;;;;;;12.30;11.00;;;0.40;99.90;;;;;;5056136;28;20201;-64
2022/04/11 04:23:25;;;;;;;13.87;11.63;;;0.50;99.90;;;;;;5062885;28;20189;-64
2022/04/11 04:25:51;;;;;;;14.37;11.47;;;0.50;99.90;;;;;;5069676;28;20186;-64
2022/04/11 04:28:17;;;;;;;13.03;11.27;;;0.50;99.90;;;;;;5055873;28;20186;-64
2022/04/11 04:30:45;;;;;;;15.47;11.50;;;0.50;99.90;;;;;;5055720;28;20190;-64
2022/04/11 04:33:12;;;;;;;17.67;11.60;;;0.50;99.90;;;;;;5054567;28;20259;-64
2022/04/11 04:35:38;;;;;;;12.97;11.57;;;0.50;99.90;;;;;;5056382;28;20202;-63
2022/04/11 04:38:04;;;;;;;12.90;11.60;;;0.50;99.90;;;;;;5055442;28;20174;-63
2022/04/11 04:40:30;;;;;;;13.70;11.23;;;0.50;99.90;;;;;;5055587;28;20228;-64
2022/04/11 04:42:56;;;;;;;14.93;11.60;;;0.50;99.90;;;;;;5055700;28;20671;-63
2022/04/11 04:45:23;;;;;;;12.97;11.50;;;0.50;99.90;;;;;;5054073;28;20228;-63
2022/04/11 04:47:49;;;;;;;17.60;12.03;;;0.50;99.90;;;;;;5056360;28;20559;-62
2022/04/11 04:50:15;;;;;;;19.10;12.97;;;0.50;99.90;;;;;;5055441;28;20293;-64
2022/04/11 04:52:40;;;;;;;15.43;11.53;;;0.50;99.90;;;;;;5055776;28;20265;-63
2022/04/11 04:55:07;;;;;;;15.23;11.53;;;0.40;99.90;;;;;;5075147;28;20201;-63
2022/04/11 04:57:33;;;;;;;16.53;11.60;;;0.50;99.90;;;;;;5055813;28;20718;-63
2022/04/11 04:59:59;;;;;;;16.33;11.33;;;0.50;99.90;;;;;;5055063;28;20195;-64
2022/04/11 05:02:25;;;;;;;15.70;10.70;;;0.50;99.90;;;;;;5055347;28;20668;-62
2022/04/11 05:04:51;;;;;;;15.80;11.43;;;0.50;99.90;;;;;;5055631;28;20189;-63
2022/04/11 05:07:16;;;;;;;16.80;11.50;;;0.40;99.90;;;;;;5055192;28;20717;-63
2022/04/11 05:09:42;;;;;;;14.03;11.37;;;0.50;99.90;;;;;;5053821;28;20209;-65
2022/04/11 05:12:08;;;;;;;12.23;10.77;;;0.50;99.90;;;;;;5055843;28;20246;-63
2022/04/11 05:14:34;;;;;;;13.73;11.60;;;0.50;99.90;;;;;;5054837;28;20206;-62
2022/04/11 05:17:00;;;;;;;13.03;11.63;;;0.50;99.90;;;;;;5053831;28;20629;-63
2022/04/11 05:19:25;;;;;;;13.33;11.10;;;0.60;99.90;;;;;;5055104;28;20194;-63
2022/04/11 05:21:51;;;;;;;11.87;10.63;;;0.60;99.90;;;;;;5053659;28;20232;-63
2022/04/11 05:24:17;;;;;;;14.10;11.10;;;0.50;99.90;;;;;;5068581;28;20203;-62
2022/04/11 05:26:42;;;;;;;14.57;12.00;;;0.60;99.90;;;;;;5061442;28;20182;-62
2022/04/11 05:29:08;;;;;;;13.50;11.73;;;0.50;99.90;;;;;;5053244;28;20682;-63
2022/04/11 05:31:34;;;;;;;13.03;11.67;;;0.50;99.90;;;;;;5054688;28;20182;-63
2022/04/11 05:34:01;;;;;;;13.60;11.30;;;0.50;99.90;;;;;;5055002;28;20249;-62
2022/04/11 05:36:27;;;;;;;13.90;11.33;;;0.50;99.90;;;;;;5054592;28;20202;-63
2022/04/11 05:38:53;;;;;;;15.87;11.30;;;0.60;99.90;;;;;;5054736;28;20312;-63
2022/04/11 05:41:18;;;;;;;16.20;11.37;;;0.60;99.90;;;;;;5054599;28;20175;-63
2022/04/11 05:43:44;;;;;;;12.73;11.43;;;0.60;99.90;;;;;;5054534;28;20178;-63
2022/04/11 05:46:11;;;;;;;14.70;11.80;;;0.70;99.90;;;;;;5052989;28;20597;-62
2022/04/11 05:48:36;;;;;;;12.33;11.13;;;0.70;99.90;;;;;;5054465;28;20267;-62
2022/04/11 05:51:02;;;;;;;13.47;12.07;;;0.80;99.90;;;;;;5053762;28;20212;-63
2022/04/11 05:53:28;;;;;;;13.97;12.43;;;0.80;99.90;;;;;;5061324;28;20189;-65
2022/04/11 05:55:54;;;;;;;14.20;12.33;;;0.90;99.90;;;;;;5067550;28;20813;-62
2022/04/11 05:58:19;;;;;;;16.83;13.33;;;1.00;99.90;;;;;;5054155;28;20182;-63
2022/04/11 06:00:46;;;;;;;17.83;13.70;;;1.10;99.90;;;;;;5053942;28;20178;-62
2022/04/11 06:03:12;;;;;;;13.90;11.57;;;1.20;99.90;;;;;;5054421;28;20182;-62
2022/04/11 06:05:38;;;;;;;12.83;11.53;;;1.30;99.90;;;;;;5054154;28;20182;-62
2022/04/11 06:08:04;;;;;;;12.50;11.30;;;1.40;99.90;;;;;;5052821;28;20213;-64
2022/04/11 06:10:29;;;;;;;13.17;11.27;;;1.50;99.90;;;;;;5053950;28;20238;-64
2022/04/11 06:12:55;;;;;;;12.33;11.07;;;1.70;99.90;;;;;;5054298;28;20657;-63
2022/04/11 06:15:21;;;;;;;13.67;10.57;;;1.80;99.90;;;;;;5053640;28;20225;-63
2022/04/11 06:17:46;;;;;;;14.23;10.90;;;1.90;99.90;;;;;;5054006;28;20232;-62
2022/04/11 06:20:12;;;;;;;12.73;10.27;;;2.10;99.90;;;;;;5053848;28;20195;-62
2022/04/11 06:22:40;;;;;;;11.10;9.73;;;2.20;99.90;;;;;;5054261;28;20174;-63
2022/04/11 06:25:08;;;;;;;11.63;10.33;;;2.40;99.90;;;;;;5072342;28;20181;-63
2022/04/11 06:27:34;;;;;;;12.97;9.33;;;2.60;99.90;;;;;;5054601;28;20187;-64
2022/04/11 06:30:00;;;;;;;11.63;10.60;;;2.80;99.90;;;;;;5053990;28;20244;-66
2022/04/11 06:32:27;;;;;;;16.87;10.70;;;3.00;99.90;;;;;;5057216;28;20182;-62
2022/04/11 06:34:54;;;;;;;15.57;10.77;;;3.10;99.90;;;;;;5054821;28;20225;-65
2022/04/11 06:37:21;;;;;;;11.33;10.27;;;3.30;99.90;;;;;;5053991;28;20174;-65
2022/04/11 06:39:47;;;;;;;13.00;11.17;;;3.50;99.90;;;;;;5052423;28;20226;-62
2022/04/11 06:42:13;;;;;;;11.67;10.47;;;3.70;99.90;;;;;;5053648;28;20202;-63
2022/04/11 06:44:39;;;;;;;12.10;9.87;;;3.90;99.90;;;;;;5053574;28;20603;-63
2022/04/11 06:47:05;;;;;;;11.03;9.93;;;4.20;99.90;;;;;;5052393;28;20186;-63
2022/04/11 06:49:31;;;;;;;10.17;9.10;;;4.40;99.90;;;;;;5053713;28;20205;-64
2022/04/11 06:51:57;;;;;;;12.47;9.23;;;4.40;99.90;;;;;;5053608;28;20178;-63
2022/04/11 06:54:23;;;;;;;9.50;8.60;;;4.50;99.90;;;;;;5068073;28;20234;-65
2022/04/11 06:56:48;;;;;;;10.83;8.70;;;4.60;99.90;;;;;;5058946;28;20214;-62
2022/04/11 06:59:17;;;;;;;10.97;8.90;;;4.70;99.90;;;;;;5051822;28;20198;-64
2022/04/11 07:01:42;;;;;;;9.53;8.63;;;4.80;99.90;;;;;;5052125;28;20174;-63
2022/04/11 07:04:08;;;;;;;9.80;8.53;;;4.80;99.90;;;;;;5053278;28;20313;-63
2022/04/11 07:06:34;;;;;;;9.07;8.17;;;5.00;99.90;;;;;;5053621;28;20253;-63
2022/04/11 07:09:00;;;;;;;11.00;8.40;;;5.10;99.90;;;;;;5053349;28;20194;-64
2022/04/11 07:11:25;;;;;;;13.47;8.43;;;5.30;99.90;;;;;;5053113;28;20240;-64
2022/04/11 07:13:51;;;;;;;9.50;7.43;;;5.50;99.90;;;;;;5053563;28;20171;-64
2022/04/11 07:16:17;;;;;;;9.00;8.10;;;5.70;99.90;;;;;;5053038;28;20198;-64
2022/04/11 07:18:43;;;;;;;8.30;7.60;;;5.90;99.90;;;;;;5051840;28;20206;-64
2022/04/11 07:21:08;;;;;;;9.93;8.10;;;6.00;99.90;;;;;;5053165;28;20193;-64
2022/04/11 07:23:34;;;;;;;10.63;8.50;;;6.10;99.90;;;;;;5060908;28;20208;-63
2022/04/11 07:26:00;;;;;;;8.87;8.03;;;6.30;99.90;;;;;;5064245;28;20186;-63
2022/04/11 07:28:26;;;;;;;8.73;7.73;;;6.40;99.90;;;;;;5053088;28;20204;-63
2022/04/11 07:30:51;;;;;;;9.60;7.93;;;6.50;99.90;;;;;;5051650;28;20209;-63
2022/04/11 07:33:17;;;;;;;10.40;7.80;;;6.60;99.90;;;;;;5053357;28;20175;-63
2022/04/11 07:35:43;;;;;;;8.00;7.20;;;6.80;99.90;;;;;;5053277;28;20198;-63
2022/04/11 07:38:09;;;;;;;10.30;7.87;;;7.00;99.90;;;;;;5053390;28;20204;-63
2022/04/11 07:40:35;;;;;;;8.43;7.50;;;7.10;99.90;;;;;;5052944;28;20198;-63
2022/04/11 07:43:00;;;;;;;11.13;7.27;;;7.20;99.90;;;;;;5053641;28;20639;-63
2022/04/11 07:45:26;;;;;;;7.63;6.93;;;7.30;99.90;;;;;;5052931;28;20205;-63
2022/04/11 07:47:52;;;;;;;7.40;6.70;;;7.40;99.90;;;;;;5053585;28;20183;-64
2022/04/11 07:50:18;;;;;;;7.27;6.33;;;7.50;99.90;;;;;;5053122;28;20205;-64
2022/04/11 07:52:44;;;;;;;8.70;6.43;;;7.70;99.90;;;;;;5053820;28;20185;-64
2022/04/11 07:55:12;;;;;;;8.30;6.83;;;8.00;99.90;;;;;;5072201;28;20212;-64
2022/04/11 07:57:38;;;;;;;7.13;6.20;;;8.10;99.90;;;;;;5053124;28;20174;-62
2022/04/11 08:00:06;;;;;;;7.97;6.30;;;8.30;99.90;;;;;;5052938;28;20237;-62
2022/04/11 08:02:33;;;;;;;7.00;6.30;;;8.60;99.90;;;;;;5052833;28;20171;-61
2022/04/11 08:05:05;;;;;;;6.03;5.43;;;8.70;99.90;;;;;;5051522;28;20273;-63
2022/04/11 08:07:34;;;;;;;6.13;5.53;;;9.00;99.90;;;;;;5052712;28;20178;-63
2022/04/11 08:10:01;;;;;;;5.80;5.20;;;9.20;99.90;;;;;;5052550;28;20279;-62
2022/04/11 08:12:26;;;;;;;5.87;5.37;;;9.40;99.90;;;;;;5053249;28;20181;-63
2022/04/11 08:14:52;;;;;;;6.47;5.40;;;9.60;99.90;;;;;;5055953;28;20642;-63
2022/04/11 08:17:18;;;;;;;6.60;5.23;;;9.70;99.90;;;;;;5055025;28;20174;-63
2022/04/11 08:19:43;;;;;;;6.93;5.53;;;10.00;99.90;;;;;;5056576;28;20277;-64
2022/04/11 08:22:09;;;;;;;6.20;5.60;;;10.20;99.90;;;;;;5056842;28;20247;-63
2022/04/11 08:24:35;;;;;;;6.07;5.10;;;10.80;99.90;;;;;;5072740;28;20181;-63
2022/04/11 08:27:01;;;;;;;5.75;5.05;;;12.00;99.90;;;;;;5059032;28;20186;-63
2022/04/11 08:29:26;;;;;;;5.90;4.72;;;13.60;99.90;;;;;;5054976;28;20671;-61
2022/04/11 08:31:52;;;;;;;5.20;4.53;;;14.90;99.90;;;;;;5056422;28;20182;-61
2022/04/11 08:34:18;;;;;;;5.97;4.40;;;16.20;99.90;;;;;;5056064;28;20249;-64
2022/04/11 08:36:44;;;;;;;7.18;4.18;;;17.20;99.90;;;;;;5056113;28;20699;-62
2022/04/11 08:39:10;;;;;;;8.00;4.38;;;17.60;99.90;;;;;;5056239;28;20209;-60
2022/04/11 08:41:36;;;;;;;5.40;4.15;;;17.30;99.90;;;;;;5055903;28;20194;-61
2022/04/11 08:44:07;;;;;;;5.97;4.10;;;17.30;99.90;;;;;;5055875;28;20224;-60
2022/04/11 08:46:34;;;;;;;7.65;4.43;;;17.50;99.90;;;;;;5055623;28;20151;-61
2022/04/11 08:49:02;;;;;;;6.75;4.00;;;17.80;99.90;;;;;;5055943;28;20198;-61
2022/04/11 08:51:31;;;;;;;6.78;4.18;;;17.80;99.90;;;;;;5055740;28;20182;-61
2022/04/11 08:53:58;;;;;;;5.30;3.90;;;17.20;99.90;;;;;;5065314;28;20642;-61
2022/04/11 08:56:24;;;;;;;4.60;3.90;;;17.60;99.90;;;;;;5064843;28;20252;-62
2022/04/11 08:58:49;;;;;;;6.97;3.90;;;17.20;99.90;;;;;;5055740;28;20198;-61
2022/04/11 09:01:16;;;;;;;5.25;4.10;;;17.20;99.90;;;;;;5055745;28;20250;-61
2022/04/11 09:03:42;;;;;;;5.68;4.18;;;17.10;99.90;;;;;;5054484;28;20224;-61
2022/04/11 09:06:10;;;;;;;4.88;3.85;;;17.20;99.90;;;;;;5056073;28;20662;-63
2022/04/11 09:08:56;;;;;;;4.50;3.70;;;17.50;99.90;;;;;;5055080;28;20226;-63
2022/04/11 09:11:36;;;;;;;4.50;3.90;;;18.30;99.90;;;;;;5055178;28;20206;-63
2022/04/11 09:14:04;;;;;;;6.07;4.35;;;17.80;99.90;;;;;;5055567;28;20182;-61
2022/04/11 09:16:48;;;;;;;5.75;4.38;;;17.10;99.90;;;;;;5053584;28;20746;-61
2022/04/11 09:19:26;;;;;;;5.50;4.28;;;16.90;99.90;;;;;;5055087;28;20237;-61
2022/04/11 09:21:54;;;;;;;5.53;4.47;;;16.80;99.90;;;;;;5055264;28;20262;-61
2022/04/11 09:24:22;;;;;;;6.10;4.10;;;17.00;99.90;;;;;;5068274;28;20174;-62
2022/04/11 09:26:51;;;;;;;5.97;4.50;;;16.70;99.90;;;;;;5060522;28;20652;-62
2022/04/11 09:29:17;;;;;;;6.22;4.20;;;16.00;99.90;;;;;;5053642;28;20198;-61
2022/04/11 09:31:43;;;;;;;7.57;4.65;;;15.10;99.90;;;;;;5054629;28;20185;-62
2022/04/11 09:34:18;;;;;;;6.53;4.60;;;14.10;99.90;;;;;;5053576;28;20224;-61
2022/04/11 09:36:49;;;;;;;5.50;4.60;;;13.70;99.90;;;;;;5053579;28;20228;-62
2022/04/11 09:39:16;;;;;;;8.27;4.57;;;13.80;99.90;;;;;;5054962;28;20284;-62
2022/04/11 09:41:43;;;;;;;5.07;4.32;;;14.00;99.90;;;;;;5055122;28;20166;-66
2022/04/11 09:44:29;;;;;;;5.90;4.40;;;14.00;99.90;;;;;;5055691;28;20508;-61
2022/04/11 09:46:59;;;;;;;5.35;4.70;;;14.10;99.90;;;;;;5054306;28;20646;-61
2022/04/11 09:49:25;;;;;;;5.32;4.75;;;14.30;99.90;;;;;;5054832;28;20198;-60
2022/04/11 09:52:12;;;;;;;5.30;4.60;;;14.50;99.90;;;;;;5054684;28;20185;-61
2022/04/11 09:54:39;;;;;;;6.63;4.70;;;14.40;99.90;;;;;;5070935;28;20197;-62
2022/04/11 09:57:06;;;;;;;5.53;4.40;;;14.40;99.90;;;;;;5057760;28;20178;-61
2022/04/11 09:59:33;;;;;;;4.88;4.45;;;14.50;99.90;;;;;;5054751;28;20535;-62
2022/04/11 10:01:58;;;;;;;5.93;4.55;;;14.50;99.90;;;;;;5054134;28;20177;-61
2022/04/11 10:04:25;;;;;;;5.40;4.90;;;14.70;99.90;;;;;;5054585;28;20158;-61
2022/04/11 10:06:51;;;;;;;6.95;4.45;;;14.70;99.90;;;;;;5054487;28;20163;-61
2022/04/11 10:09:19;;;;;;;8.63;4.85;;;14.70;99.90;;;;;;5054171;28;20191;-61
2022/04/11 10:11:45;;;;;;;5.53;4.70;;;14.80;99.90;;;;;;5053907;28;20190;-61
2022/04/11 10:14:12;;;;;;;6.13;4.47;;;14.80;99.90;;;;;;5054031;28;20186;-61
2022/04/11 10:16:43;;;;;;;6.53;4.60;;;14.70;99.90;;;;;;5053837;28;20197;-62
2022/04/11 10:19:12;;;;;;;6.63;4.90;;;14.70;99.90;;;;;;5054001;28;20233;-61
2022/04/11 10:21:45;;;;;;;9.02;4.45;;;14.70;99.90;;;;;;5053941;28;20170;-61
2022/04/11 10:24:28;;;;;;;6.32;4.50;;;14.70;99.90;;;;;;5065331;28;20250;-62
2022/04/11 10:26:55;;;;;;;6.88;4.75;;;14.80;99.90;;;;;;5057525;28;20214;-61
2022/04/11 10:29:31;;;;;;;7.22;4.13;;;14.70;99.90;;;;;;5053720;28;20662;-60
2022/04/11 10:32:14;;;;;;;6.32;4.70;;;14.70;99.90;;;;;;5053570;28;20178;-60
2022/04/11 10:34:56;;;;;;;4.57;4.18;;;14.80;99.90;;;;;;5053758;28;20174;-61
2022/04/11 10:37:27;;;;;;;5.35;4.00;;;14.80;99.90;;;;;;5052207;28;20178;-61
2022/04/11 10:40:13;;;;;;;5.15;4.20;;;14.80;99.90;;;;;;5053677;28;20186;-62
2022/04/11 10:42:59;;;;;;;7.10;4.47;;;14.90;99.90;;;;;;5052157;28;20182;-61
2022/04/11 10:45:40;;;;;;;6.32;4.40;;;14.90;99.90;;;;;;5053806;28;20516;-62
2022/04/11 10:48:07;;;;;;;5.10;4.60;;;15.00;99.90;;;;;;5053774;28;20262;-62
2022/04/11 10:50:33;;;;;;;7.55;4.57;;;15.00;99.90;;;;;;5052043;28;20229;-61
2022/04/11 10:53:10;;;;;;;4.63;3.78;;;15.20;99.90;;;;;;5055064;28;20213;-61
2022/04/11 10:55:56;;;;;;;6.10;4.40;;;15.30;99.90;;;;;;5069361;28;20666;-61
2022/04/11 10:58:38;;;;;;;5.85;3.83;;;15.50;99.90;;;;;;5053275;28;20158;-61
2022/04/11 11:01:03;;;;;;;7.18;4.32;;;15.70;99.90;;;;;;5053372;28;20162;-61
2022/04/11 11:03:29;;;;;;;4.53;3.97;;;15.60;99.90;;;;;;5053790;28;20261;-61
2022/04/11 11:05:55;;;;;;;6.43;4.00;;;15.60;99.90;;;;;;5053218;28;20590;-62
2022/04/11 11:08:21;;;;;;;4.80;4.35;;;15.70;99.90;;;;;;5053461;28;20700;-62
2022/04/11 11:10:52;;;;;;;5.38;3.80;;;15.90;99.90;;;;;;5053097;28;20202;-61
2022/04/11 11:13:36;;;;;;;9.52;4.22;;;16.10;99.90;;;;;;5052108;28;20175;-61
2022/04/11 11:16:07;;;;;;;4.75;4.00;;;15.60;99.90;;;;;;5052941;28;20198;-61
2022/04/11 11:18:51;;;;;;;5.32;4.28;;;15.80;99.90;;;;;;5053111;28;20225;-61
2022/04/11 11:21:33;;;;;;;8.00;4.72;;;15.80;99.90;;;;;;5053459;28;20659;-62
2022/04/11 11:26:53;;;;;;;4.78;3.88;;;16.30;99.90;;;;;;5061246;28;20182;-61
2022/04/11 11:29:25;;;;;;;3.97;3.58;;;16.50;99.90;;;;;;5053048;28;20721;-61
2022/04/11 11:32:04;;;;;;;5.53;4.20;;;16.70;99.90;;;;;;5052730;28;20174;-61
2022/04/11 11:34:32;;;;;;;5.38;4.10;;;16.90;99.90;;;;;;5053217;28;20253;-61
2022/04/11 11:37:02;;;;;;;5.82;4.03;;;17.10;99.90;;;;;;5053201;28;20209;-61
2022/04/11 11:39:29;;;;;;;5.70;3.83;;;17.10;99.90;;;;;;5052901;28;20665;-61
2022/04/11 11:42:00;;;;;;;3.65;3.30;;;17.10;99.90;;;;;;5052924;28;20193;-61
2022/04/11 11:44:27;;;;;;;3.85;3.47;;;17.20;99.90;;;;;;5053151;28;20612;-61
2022/04/11 11:46:56;;;;;;;6.25;3.67;;;17.40;99.90;;;;;;5052723;28;20183;-61
2022/04/11 11:49:24;;;;;;;5.65;3.67;;;17.60;99.90;;;;;;5056022;28;20194;-61
2022/04/11 11:51:51;;;;;;;4.80;3.50;;;17.90;99.90;;;;;;5057162;28;20662;-61
2022/04/11 11:54:37;;;;;;;5.55;3.50;;;18.10;99.90;;;;;;5070403;28;20186;-62
2022/04/11 11:57:20;;;;;;;3.60;3.30;;;18.40;99.90;;;;;;5060263;28;20198;-61
2022/04/11 11:59:51;;;;;;;5.00;3.40;;;18.50;99.90;;;;;;5056737;28;20612;-61
2022/04/11 12:05:13;;;;;;;5.70;3.58;;;18.60;99.90;;;;;;5056617;28;20173;-62
2022/04/11 12:07:39;;;;;;;4.00;3.38;;;18.70;99.90;;;;;;5055218;28;20178;-62
2022/04/11 12:10:08;;;;;;;5.47;3.38;;;18.80;99.90;;;;;;5055057;28;20206;-61
2022/04/11 12:12:34;;;;;;;4.15;3.08;;;18.90;99.90;;;;;;5056797;28;20182;-62
2022/04/11 12:15:07;;;;;;;4.03;3.10;;;19.00;99.90;;;;;;5056365;28;20293;-62
2022/04/11 12:17:45;;;;;;;4.13;2.80;;;18.90;99.90;;;;;;5056130;28;20171;-61
2022/04/11 12:20:21;;;;;;;4.03;2.80;;;19.10;99.90;;;;;;5056224;28;20226;-62
2022/04/11 12:23:05;;;;;;;6.32;3.47;;;19.20;99.90;;;;;;5057728;28;20159;-62
2022/04/11 12:26:01;;;;;;;3.33;3.03;;;19.40;99.90;;;;;;5072918;28;20190;-62
2022/04/11 12:28:28;;;;;;;4.15;2.70;;;19.70;99.90;;;;;;5056643;28;20268;-62
2022/04/11 12:31:03;;;;;;;6.80;2.65;;;19.90;99.90;;;;;;5054786;28;20163;-63
2022/04/11 12:33:37;;;;;;;4.80;2.80;;;19.80;99.90;;;;;;5055982;28;20533;-62
2022/04/11 12:36:10;;;;;;;5.13;2.97;;;19.80;99.90;;;;;;5054591;28;20311;-63
2022/04/11 12:38:58;;;;;;;3.45;2.58;;;19.70;99.90;;;;;;5055794;28;20551;-62
2022/04/11 12:41:27;;;;;;;6.13;2.70;;;19.60;99.90;;;;;;5056150;28;20167;-63
2022/04/11 12:44:18;;;;;;;3.78;2.70;;;19.40;99.90;;;;;;5056896;28;20519;-62
2022/04/11 12:46:47;;;;;;;3.10;2.78;;;19.50;99.90;;;;;;5054568;28;20174;-62
2022/04/11 12:49:17;;;;;;;5.32;2.83;;;19.40;99.90;;;;;;5056396;28;20201;-62
2022/04/11 12:52:03;;;;;;;4.53;3.22;;;19.00;99.90;;;;;;5056462;28;20163;-62